Time;durP1;ratioP1;P1;durP2;ratioP2;P2;SDS_P1;SDS_P2;PMS_P1;PMS_P2;Temp;Humidity;BMP_temperature;BMP_pressure;BME280_temperature;BME280_humidity;BME280_pressure;Samples;Min_cycle;Max_cycle;Signal;HPM_P1;HPM_P2
2022/09/05 00:01:37;;;;;;;10.00;9.00;;;;;;;26.15;45.60;101982.59;4988417;28;20048;-70
2022/09/05 00:04:17;;;;;;;10.95;9.75;;;;;;;26.13;45.53;101981.25;4985812;28;20117;-69
2022/09/05 00:06:51;;;;;;;13.40;9.73;;;;;;;26.17;45.24;101979.53;4990431;28;20093;-70
2022/09/05 00:09:35;;;;;;;13.18;9.07;;;;;;;26.19;45.27;101975.38;5045926;28;20161;-69
2022/09/05 00:12:02;;;;;;;12.10;10.48;;;;;;;26.19;45.33;101978.13;5083983;28;20042;-68
2022/09/05 00:14:52;;;;;;;14.35;9.43;;;;;;;26.19;45.53;101975.38;5073947;28;20056;-69
2022/09/05 00:17:52;;;;;;;17.67;10.07;;;;;;;26.09;45.64;101967.28;5093063;28;20028;-70
2022/09/05 00:20:36;;;;;;;10.30;9.23;;;;;;;26.06;45.29;101971.44;5084022;28;20143;-71
2022/09/05 00:23:06;;;;;;;10.73;9.40;;;;;;;26.03;45.83;101973.97;5072652;28;20041;-70
2022/09/05 00:26:22;;;;;;;12.65;9.57;;;;;;;26.01;45.49;101971.50;5072695;28;20037;-68
2022/09/05 00:29:06;;;;;;;10.90;9.65;;;;;;;25.96;45.85;101973.53;4990736;28;20133;-69
2022/09/05 00:31:43;;;;;;;9.57;8.55;;;;;;;25.96;45.61;101979.06;4990818;28;20049;-69
2022/09/05 00:34:50;;;;;;;13.35;10.10;;;;;;;25.91;45.79;101970.84;4991048;28;20030;-69
2022/09/05 00:37:46;;;;;;;11.18;9.95;;;;;;;25.87;45.67;101970.63;4990356;28;20042;-68
2022/09/05 00:40:31;;;;;;;13.20;9.63;;;;;;;25.89;45.83;101971.16;4913929;29;20092;-68
2022/09/05 00:43:05;;;;;;;10.70;9.63;;;;;;;25.87;45.65;101983.59;4895246;29;20040;-68
2022/09/05 00:45:57;;;;;;;12.25;9.25;;;;;;;25.91;45.67;101979.94;4894709;29;20060;-69
2022/09/05 00:48:50;;;;;;;10.50;9.40;;;;;;;25.91;45.37;101976.34;4894695;29;20052;-71
2022/09/05 00:51:42;;;;;;;12.38;9.30;;;;;;;25.91;45.34;101970.84;4876228;29;20084;-68
2022/09/05 00:54:22;;;;;;;14.27;9.10;;;;;;;25.89;45.20;101970.31;4876723;29;20128;-68
2022/09/05 00:57:27;;;;;;;11.32;10.13;;;;;;;25.87;45.71;101961.53;4875997;29;20064;-68
2022/09/05 01:00:23;;;;;;;10.25;9.27;;;;;;;25.78;46.02;101963.34;4892180;29;20049;-70
2022/09/05 01:03:01;;;;;;;14.75;10.13;;;;;;;25.85;45.52;101963.78;4894688;29;20048;-69
2022/09/05 01:05:51;;;;;;;10.95;9.50;;;;;;;25.82;45.42;101959.72;4945662;28;20073;-67
2022/09/05 01:08:35;;;;;;;10.30;9.23;;;;;;;25.78;45.92;101961.44;4951467;29;20043;-69
2022/09/05 01:11:27;;;;;;;11.68;10.18;;;;;;;25.71;45.55;101958.22;4951604;29;20779;-70
2022/09/05 01:14:29;;;;;;;13.75;9.85;;;;;;;25.71;45.77;101962.94;4951275;29;20110;-69
2022/09/05 01:17:21;;;;;;;11.18;9.20;;;;;;;25.69;45.66;101967.91;5003941;28;20044;-68
2022/09/05 01:20:27;;;;;;;10.13;8.63;;;;;;;25.56;45.99;101965.91;5049170;28;20049;-70
2022/09/05 01:23:15;;;;;;;13.38;10.15;;;;;;;25.59;45.80;101968.88;5009737;28;20056;-68
2022/09/05 01:25:52;;;;;;;12.90;10.55;;;;;;;25.58;46.04;101970.00;5009914;28;20126;-68
2022/09/05 01:28:17;;;;;;;11.75;9.77;;;;;;;25.58;45.64;101971.91;5030364;28;20527;-69
2022/09/05 01:31:07;;;;;;;11.57;10.18;;;;;;;25.52;46.12;101967.59;5049503;28;20108;-69
2022/09/05 01:33:42;;;;;;;11.40;9.32;;;;;;;25.49;45.86;101973.72;5049163;28;20559;-69
2022/09/05 01:36:48;;;;;;;13.65;10.00;;;;;;;25.48;45.85;101972.06;5049823;28;20461;-68
2022/09/05 01:39:40;;;;;;;11.05;9.30;;;;;;;25.46;45.80;101977.06;4970668;28;20051;-70
2022/09/05 01:42:35;;;;;;;10.70;9.55;;;;;;;25.39;46.00;101977.41;4970957;28;20093;-71
2022/09/05 01:45:09;;;;;;;12.07;9.95;;;;;;;25.39;45.87;101971.91;4970365;28;20105;-70
2022/09/05 01:47:56;;;;;;;10.75;9.57;;;;;;;25.31;46.07;101966.22;4970517;28;20553;-68
2022/09/05 01:50:35;;;;;;;22.42;10.75;;;;;;;25.26;46.08;101975.38;4970521;28;20043;-71
2022/09/05 01:53:14;;;;;;;14.30;9.45;;;;;;;25.27;46.04;101964.09;4954234;28;20074;-70
2022/09/05 01:56:01;;;;;;;10.70;9.60;;;;;;;25.21;46.11;101975.44;4970327;28;20038;-68
2022/09/05 01:58:30;;;;;;;13.20;10.13;;;;;;;25.09;46.41;101969.53;4973227;28;20043;-70
2022/09/05 02:01:09;;;;;;;10.68;9.68;;;;;;;25.11;46.61;101976.41;4989829;28;20050;-68
2022/09/05 02:04:06;;;;;;;10.88;9.80;;;;;;;25.02;46.70;101975.41;4989712;28;20038;-71
2022/09/05 02:06:46;;;;;;;13.35;9.32;;;;;;;25.00;46.32;101965.81;4989744;28;20037;-69
2022/09/05 02:09:56;;;;;;;10.40;9.40;;;;;;;24.96;46.58;101971.06;4990331;28;20042;-68
2022/09/05 02:12:33;;;;;;;16.63;11.23;;;;;;;24.95;46.90;101972.19;4912961;29;20487;-69
2022/09/05 02:15:08;;;;;;;14.13;10.10;;;;;;;24.92;46.95;101969.22;4929039;28;20135;-69
2022/09/05 02:17:40;;;;;;;11.85;10.23;;;;;;;24.82;47.15;101970.16;4972531;28;20053;-69
2022/09/05 02:20:32;;;;;;;11.40;10.30;;;;;;;24.83;46.92;101977.28;4973335;28;20133;-68
2022/09/05 02:23:27;;;;;;;11.43;10.32;;;;;;;24.77;47.10;101972.97;4973754;28;20035;-69
2022/09/05 02:25:58;;;;;;;13.98;10.75;;;;;;;24.75;47.30;101975.19;4935347;29;20508;-70
2022/09/05 02:28:40;;;;;;;11.85;10.68;;;;;;;24.70;47.05;101972.47;4935157;29;20493;-68
2022/09/05 02:31:23;;;;;;;10.93;9.80;;;;;;;24.69;47.14;101978.22;4934915;29;20472;-69
2022/09/05 02:34:00;;;;;;;11.32;10.05;;;;;;;24.65;47.17;101983.50;4939935;29;20039;-69
2022/09/05 02:36:38;;;;;;;12.10;10.32;;;;;;;24.55;47.52;101982.81;4954496;29;20055;-68
2022/09/05 02:39:33;;;;;;;16.15;10.27;;;;;;;24.57;47.12;101975.88;4954806;29;20031;-70
2022/09/05 02:42:13;;;;;;;14.55;9.77;;;;;;;24.48;47.40;101968.56;4958887;28;20051;-68
2022/09/05 02:44:45;;;;;;;15.80;10.47;;;;;;;24.44;47.46;101973.84;5032229;28;20057;-69
2022/09/05 02:47:25;;;;;;;11.95;10.75;;;;;;;24.50;47.55;101975.44;5032334;28;20427;-70
2022/09/05 02:50:11;;;;;;;13.20;11.02;;;;;;;24.50;47.50;101974.59;5032514;28;20068;-68
2022/09/05 02:52:40;;;;;;;13.73;10.60;;;;;;;24.41;47.54;101977.97;5013147;28;20121;-69
2022/09/05 02:55:17;;;;;;;12.23;11.02;;;;;;;24.33;47.99;101973.09;4996040;28;20030;-70
2022/09/05 02:58:02;;;;;;;14.25;10.35;;;;;;;24.37;47.95;101978.88;5011966;28;20038;-69
2022/09/05 03:00:58;;;;;;;14.45;12.15;;;;;;;24.32;47.89;101973.41;5012286;28;20034;-68
2022/09/05 03:03:33;;;;;;;12.20;10.88;;;;;;;24.32;48.05;101967.91;4992537;28;20050;-69
2022/09/05 03:06:21;;;;;;;11.30;10.25;;;;;;;24.25;48.07;101970.19;4976291;28;20108;-68
2022/09/05 03:09:09;;;;;;;13.90;10.73;;;;;;;24.14;48.60;101977.69;4992448;28;20039;-69
2022/09/05 03:12:14;;;;;;;12.57;11.32;;;;;;;24.14;48.37;101985.09;4992533;28;20556;-68
2022/09/05 03:15:13;;;;;;;13.35;10.73;;;;;;;24.23;48.07;101980.63;4992117;28;20039;-69
2022/09/05 03:17:57;;;;;;;12.30;11.10;;;;;;;24.25;47.78;101981.16;4992280;28;20061;-70
2022/09/05 03:20:40;;;;;;;13.57;11.88;;;;;;;24.22;48.26;101976.25;4992067;28;20069;-69
2022/09/05 03:23:38;;;;;;;12.48;11.18;;;;;;;24.13;47.91;101987.03;4992293;28;20069;-69
2022/09/05 03:26:34;;;;;;;15.07;11.18;;;;;;;24.08;48.40;101984.31;4992027;28;20125;-68
2022/09/05 03:29:24;;;;;;;14.57;10.85;;;;;;;24.14;48.29;101985.94;4991678;28;20054;-68
2022/09/05 03:32:19;;;;;;;14.30;11.43;;;;;;;24.07;48.13;101981.88;4972687;28;20047;-69
2022/09/05 03:35:23;;;;;;;13.00;11.60;;;;;;;24.02;48.87;101990.13;4972635;28;20099;-69
2022/09/05 03:38:07;;;;;;;12.45;10.85;;;;;;;23.96;48.63;101986.59;4972478;28;20419;-73
2022/09/05 03:40:57;;;;;;;13.13;11.80;;;;;;;23.98;48.82;101989.06;5015798;28;20094;-70
2022/09/05 03:43:45;;;;;;;13.45;12.13;;;;;;;23.99;48.39;101988.78;5069006;28;20045;-70
2022/09/05 03:46:29;;;;;;;15.13;12.10;;;;;;;23.97;48.69;101987.41;5053584;28;20116;-68
2022/09/05 03:49:17;;;;;;;16.23;12.43;;;;;;;23.94;49.22;101990.75;5073187;28;20029;-69
2022/09/05 03:51:59;;;;;;;16.83;12.88;;;;;;;23.98;48.49;101991.81;4991159;28;20042;-69
2022/09/05 03:54:51;;;;;;;15.45;12.80;;;;;;;23.99;48.95;101990.69;4991599;28;20042;-70
2022/09/05 03:57:19;;;;;;;14.07;12.68;;;;;;;23.84;49.06;101988.06;4991692;28;20123;-70
2022/09/05 04:00:08;;;;;;;17.08;13.18;;;;;;;23.88;49.17;101994.63;4991932;28;20077;-69
2022/09/05 04:02:42;;;;;;;14.10;12.50;;;;;;;23.90;49.06;101990.47;4989581;28;20030;-69
2022/09/05 04:05:13;;;;;;;16.38;13.52;;;;;;;23.85;49.26;101993.28;4987267;28;20030;-68
2022/09/05 04:07:43;;;;;;;14.27;12.55;;;;;;;23.97;48.83;101996.47;4983514;28;20590;-69
2022/09/05 04:10:22;;;;;;;15.13;13.23;;;;;;;24.04;48.72;102002.47;4985539;28;20125;-69
2022/09/05 04:12:54;;;;;;;15.85;12.95;;;;;;;24.28;48.01;102003.38;4976238;28;20067;-69
2022/09/05 04:15:34;;;;;;;14.18;12.77;;;;;;;24.24;48.30;102001.50;4979403;28;20045;-70
2022/09/05 04:18:10;;;;;;;;;;;;;;;24.24;48.18;102005.06;4992142;28;20972;-68
2022/09/05 04:20:47;;;;;;;14.90;13.40;;;;;;;24.29;48.22;102004.22;4990652;28;20473;-70
2022/09/05 04:23:23;;;;;;;15.18;13.63;;;;;;;24.36;47.77;101996.44;4990739;28;20040;-70
2022/09/05 04:26:03;;;;;;;15.77;12.88;;;;;;;24.35;48.01;102000.31;4991232;28;20038;-68
2022/09/05 04:28:55;;;;;;;14.93;13.43;;;;;;;24.42;48.02;101996.13;5013007;28;20405;-69
2022/09/05 04:31:36;;;;;;;15.43;13.23;;;;;;;24.50;47.57;102000.16;5052830;28;20045;-69
2022/09/05 04:34:07;;;;;;;14.00;12.70;;;;;;;24.59;47.44;102000.34;5052694;28;20027;-70
2022/09/05 04:36:35;;;;;;;13.23;11.93;;;;;;;24.46;47.93;101996.34;5052785;28;20045;-69
2022/09/05 04:39:25;;;;;;;14.48;13.02;;;;;;;24.49;47.50;102004.00;5052470;28;20053;-68
2022/09/05 04:42:18;;;;;;;14.65;13.20;;;;;;;24.51;47.48;102007.28;5030084;28;20636;-68
2022/09/05 04:45:01;;;;;;;15.32;13.35;;;;;;;24.64;47.18;102001.13;5046070;28;20643;-70
2022/09/05 04:47:44;;;;;;;14.45;13.00;;;;;;;24.73;47.15;102009.56;5049013;28;20123;-69
2022/09/05 04:50:19;;;;;;;17.25;13.40;;;;;;;24.74;46.89;102006.53;5029720;28;20587;-70
2022/09/05 04:53:09;;;;;;;14.05;12.52;;;;;;;24.73;46.80;102004.06;5044139;28;20528;-68
2022/09/05 04:55:45;;;;;;;14.07;12.68;;;;;;;24.68;47.17;102009.59;5048655;28;20057;-71
2022/09/05 04:58:21;;;;;;;14.30;11.82;;;;;;;24.56;47.47;102011.91;5030409;28;20095;-68
2022/09/05 05:01:02;;;;;;;14.75;13.30;;;;;;;24.63;47.25;102017.91;5049127;28;20086;-72
2022/09/05 05:03:30;;;;;;;13.30;12.00;;;;;;;24.51;47.51;102015.53;5049256;28;20033;-71
2022/09/05 05:06:00;;;;;;;13.77;12.38;;;;;;;24.67;47.11;102016.22;5049885;28;20044;-71
2022/09/05 05:08:48;;;;;;;13.43;12.13;;;;;;;24.68;47.22;102020.59;5049340;28;20094;-71
2022/09/05 05:11:30;;;;;;;16.73;12.60;;;;;;;24.74;47.08;102014.78;5049285;28;20098;-71
2022/09/05 05:14:02;;;;;;;13.93;11.40;;;;;;;24.79;46.66;102024.91;5049210;28;20127;-74
2022/09/05 05:16:36;;;;;;;15.80;11.75;;;;;;;24.82;46.44;102025.16;5048826;28;20048;-72
2022/09/05 05:19:29;;;;;;;19.42;10.63;;;;;;;24.80;46.54;102029.31;5058231;28;20057;-73
2022/09/05 05:21:58;;;;;;;12.55;11.38;;;;;;;24.81;46.29;102031.75;5091658;28;20042;-71
2022/09/05 05:24:33;;;;;;;14.10;11.07;;;;;;;24.74;46.70;102033.22;5053838;28;20046;-72
2022/09/05 05:27:28;;;;;;;11.65;10.35;;;;;;;24.70;46.91;102029.38;5053763;28;20041;-71
2022/09/05 05:29:56;;;;;;;12.82;11.48;;;;;;;24.76;46.53;102026.31;5071881;28;20033;-73
2022/09/05 05:32:35;;;;;;;12.35;11.05;;;;;;;24.79;46.74;102025.72;5071394;28;20053;-73
2022/09/05 05:35:09;;;;;;;12.18;10.98;;;;;;;24.82;46.70;102029.84;5053827;28;20566;-73
2022/09/05 05:38:02;;;;;;;12.15;10.88;;;;;;;24.72;46.76;102025.25;5074591;28;20074;-73
2022/09/05 05:40:31;;;;;;;15.98;10.88;;;;;;;24.76;46.75;102031.00;5084379;28;20040;-72
2022/09/05 05:43:18;;;;;;;12.57;11.02;;;;;;;24.80;46.44;102021.88;5081197;28;20066;-71
2022/09/05 05:45:44;;;;;;;12.20;11.00;;;;;;;24.83;46.43;102023.22;5084658;28;20431;-71
2022/09/05 05:48:18;;;;;;;12.27;11.07;;;;;;;24.84;46.71;102019.38;5073096;28;20043;-70
2022/09/05 05:51:11;;;;;;;14.45;11.00;;;;;;;24.86;46.73;102020.72;5093760;28;20043;-71
2022/09/05 05:53:55;;;;;;;16.02;12.40;;;;;;;25.00;46.31;102029.88;5096240;28;20024;-73
2022/09/05 05:56:39;;;;;;;20.52;11.75;;;;;;;24.91;46.35;102017.91;5095966;28;20038;-71
2022/09/05 05:59:31;;;;;;;17.88;10.95;;;;;;;24.97;46.25;102021.41;5095272;28;20059;-71
2022/09/05 06:02:21;;;;;;;13.05;11.45;;;;;;;24.92;46.37;102026.97;5095245;28;20029;-74
2022/09/05 06:05:13;;;;;;;12.60;11.30;;;;;;;25.06;46.21;102025.97;5095529;28;20039;-72
2022/09/05 06:08:12;;;;;;;11.68;10.55;;;;;;;24.66;46.71;102022.81;5095061;28;20038;-71
2022/09/05 06:11:13;;;;;;;14.95;11.55;;;;;;;24.65;47.14;102021.19;5074304;28;20055;-69
2022/09/05 06:13:58;;;;;;;12.32;11.07;;;;;;;24.98;46.19;102026.59;5085885;28;20052;-69
2022/09/05 06:16:45;;;;;;;13.27;11.55;;;;;;;25.12;45.81;102030.28;5086362;28;20054;-71
2022/09/05 06:19:41;;;;;;;12.90;11.15;;;;;;;25.17;45.52;102032.19;5079450;28;20151;-72
2022/09/05 06:22:38;;;;;;;13.52;10.98;;;;;;;25.24;45.40;102024.38;5095222;28;20035;-71
2022/09/05 06:25:42;;;;;;;12.93;11.65;;;;;;;25.38;45.01;102029.97;5095765;28;20050;-72
2022/09/05 06:28:13;;;;;;;14.13;11.23;;;;;;;25.37;45.21;102029.19;5092294;28;20028;-72
2022/09/05 06:31:04;;;;;;;12.43;10.77;;;;;;;25.25;45.51;102031.53;5085731;28;20040;-73
2022/09/05 06:34:02;;;;;;;12.95;11.65;;;;;;;25.41;45.19;102035.75;5003853;28;20073;-74
2022/09/05 06:36:34;;;;;;;19.80;12.57;;;;;;;25.55;45.04;102042.16;5010093;28;20032;-71
2022/09/05 06:39:29;;;;;;;13.93;12.38;;;;;;;25.70;44.57;102041.13;4997866;28;20568;-73
2022/09/05 06:42:20;;;;;;;14.93;11.48;;;;;;;25.66;44.77;102048.34;4998811;28;20597;-71
2022/09/05 06:44:58;;;;;;;16.42;12.80;;;;;;;25.54;45.32;102051.53;4932393;29;20543;-70
2022/09/05 06:47:24;;;;;;;14.70;12.23;;;;;;;25.56;45.42;102051.25;4932378;29;20071;-70
2022/09/05 06:50:13;;;;;;;16.38;13.48;;;;;;;25.62;45.23;102050.06;4930159;29;20043;-72
2022/09/05 06:53:04;;;;;;;14.70;11.90;;;;;;;25.64;45.36;102051.41;4932985;29;20044;-71
2022/09/05 06:56:17;;;;;;;17.13;12.73;;;;;;;25.70;45.42;102049.41;4941102;28;20049;-72
2022/09/05 06:59:16;;;;;;;14.32;12.93;;;;;;;25.81;45.20;102045.38;4912486;29;20063;-71
2022/09/05 07:01:54;;;;;;;15.00;13.40;;;;;;;25.94;45.21;102050.16;4911841;29;20044;-72
2022/09/05 07:04:25;;;;;;;15.00;13.35;;;;;;;26.13;44.76;102052.91;4912092;29;20123;-71
2022/09/05 07:07:01;;;;;;;14.65;13.07;;;;;;;26.22;44.34;102054.69;4910678;29;20032;-73
2022/09/05 07:09:47;;;;;;;16.23;13.30;;;;;;;26.33;44.29;102049.81;4910388;28;20058;-75
2022/09/05 07:12:27;;;;;;;19.73;13.52;;;;;;;26.49;44.47;102053.97;4964037;28;20121;-72
2022/09/05 07:14:59;;;;;;;16.10;13.80;;;;;;;26.60;44.28;102052.66;4948717;28;20066;-72
2022/09/05 07:17:41;;;;;;;14.82;12.85;;;;;;;26.67;43.82;102053.91;4936439;29;20051;-73
2022/09/05 07:20:46;;;;;;;18.10;12.63;;;;;;;26.88;44.10;102057.16;4954787;28;20051;-74
2022/09/05 07:23:26;;;;;;;19.45;13.30;;;;;;;26.99;43.32;102061.34;4958580;28;20098;-73
2022/09/05 07:25:54;;;;;;;21.10;14.93;;;;;;;27.11;43.39;102064.41;4971500;28;20073;-71
2022/09/05 07:28:21;;;;;;;14.55;12.48;;;;;;;27.24;42.87;102058.09;4975623;28;20035;-71
2022/09/05 07:30:51;;;;;;;14.80;13.27;;;;;;;27.29;42.97;102065.44;5015244;28;20096;-72
2022/09/05 07:33:21;;;;;;;;;;;;;;;27.49;42.46;102067.81;4997424;28;20207;-71
2022/09/05 07:35:50;;;;;;;21.23;13.83;;;;;;;27.38;43.49;102063.63;5013201;28;19995;-73
2022/09/05 07:38:27;;;;;;;17.83;13.52;;;;;;;27.77;42.09;102056.38;5010478;28;20463;-75
2022/09/05 07:41:01;;;;;;;15.30;13.70;;;;;;;27.80;42.08;102058.53;5010177;28;20120;-74
2022/09/05 07:43:34;;;;;;;17.10;13.90;;;;;;;27.90;42.50;102053.91;5009827;28;20096;-73
2022/09/05 07:45:59;;;;;;;14.55;12.88;;;;;;;27.99;41.92;102065.88;5009688;28;20044;-73
2022/09/05 07:48:28;;;;;;;14.60;12.82;;;;;;;28.14;42.65;102062.75;5010269;28;20038;-72
2022/09/05 07:51:02;;;;;;;14.18;12.68;;;;;;;28.26;41.87;102071.31;5001663;28;20046;-72
2022/09/05 07:53:28;;;;;;;18.33;13.52;;;;;;;28.29;42.21;102065.13;5015545;28;20046;-73
2022/09/05 07:55:57;;;;;;;14.57;13.00;;;;;;;28.30;42.44;102056.53;5015457;28;20534;-74
2022/09/05 07:58:40;;;;;;;21.08;13.45;;;;;;;28.40;42.00;102058.22;5033361;28;20048;-73
2022/09/05 08:01:08;;;;;;;20.98;14.25;;;;;;;28.57;42.12;102061.13;5083551;28;20459;-70
2022/09/05 08:03:33;;;;;;;16.58;14.43;;;;;;;28.55;41.41;102067.00;5092225;28;20380;-72
2022/09/05 08:06:05;;;;;;;22.70;15.13;;;;;;;28.67;41.28;102052.56;5092772;28;20039;-73
2022/09/05 08:09:01;;;;;;;20.08;14.63;;;;;;;28.81;41.55;102064.38;5084291;28;20028;-72
2022/09/05 08:11:32;;;;;;;15.63;13.30;;;;;;;28.94;41.32;102057.09;5074777;28;20085;-72
2022/09/05 08:14:05;;;;;;;16.90;12.90;;;;;;;28.99;41.18;102057.75;5084385;28;20369;-73
2022/09/05 08:16:33;;;;;;;16.55;13.50;;;;;;;29.09;41.21;102064.97;5078952;28;20036;-72
2022/09/05 08:19:26;;;;;;;18.35;14.50;;;;;;;29.07;40.76;102059.75;5075201;28;20496;-71
2022/09/05 08:21:56;;;;;;;15.48;13.88;;;;;;;29.14;40.68;102051.00;5071481;28;20051;-71
2022/09/05 08:24:41;;;;;;;17.80;14.88;;;;;;;29.43;40.03;102054.03;5079824;28;20062;-71
2022/09/05 08:27:18;;;;;;;14.95;13.45;;;;;;;29.46;40.15;102065.28;5071798;28;20032;-72
2022/09/05 08:29:52;;;;;;;23.10;13.98;;;;;;;29.50;39.98;102059.94;5071557;28;20045;-72
2022/09/05 08:32:23;;;;;;;15.63;13.93;;;;;;;29.48;39.94;102059.44;5086035;28;20085;-72
2022/09/05 08:35:06;;;;;;;16.52;13.73;;;;;;;29.66;39.80;102060.28;5079599;28;20044;-73
2022/09/05 08:37:32;;;;;;;22.55;14.65;;;;;;;29.73;39.47;102060.63;5083300;28;20433;-74
2022/09/05 08:40:12;;;;;;;16.92;14.32;;;;;;;29.77;39.79;102058.84;5075953;28;20725;-75
2022/09/05 08:42:47;;;;;;;17.55;13.77;;;;;;;29.89;39.48;102059.84;5071240;28;20503;-76
2022/09/05 08:45:25;;;;;;;22.25;14.40;;;;;;;29.99;39.36;102044.84;5079902;28;20036;-74
2022/09/05 08:48:18;;;;;;;18.52;15.13;;;;;;;30.19;39.32;102047.75;5089121;28;20040;-73
2022/09/05 08:51:09;;;;;;;16.27;14.18;;;;;;;30.31;38.79;102049.88;5085863;28;20040;-73
2022/09/05 08:53:43;;;;;;;20.77;13.68;;;;;;;30.40;39.03;102053.47;5071412;28;20036;-75
2022/09/05 08:56:17;;;;;;;15.77;12.82;;;;;;;30.51;38.25;102049.19;5071345;28;20032;-72
2022/09/05 08:59:12;;;;;;;17.35;12.90;;;;;;;30.70;38.59;102051.59;5070996;28;20032;-73
2022/09/05 09:01:56;;;;;;;14.18;10.80;;;;;;;30.90;37.37;102048.13;5085013;28;20056;-73
2022/09/05 09:04:44;;;;;;;19.65;10.13;;;;;;;31.15;36.49;102039.66;5068207;28;20032;-74
2022/09/05 09:07:28;;;;;;;14.43;11.38;;;;;;;31.27;36.44;102047.31;5081146;28;20082;-75
2022/09/05 09:10:08;;;;;;;20.98;10.82;;;;;;;31.33;36.66;102045.94;5070821;28;20056;-73
2022/09/05 09:12:48;;;;;;;15.45;10.63;;;;;;;31.56;36.29;102043.72;5055878;28;20501;-73
2022/09/05 09:15:40;;;;;;;12.13;10.13;;;;;;;31.73;36.00;102047.19;5077429;28;20039;-73
2022/09/05 09:18:15;;;;;;;12.43;8.77;;;;;;;31.78;35.36;102035.84;5019190;28;20050;-75
2022/09/05 09:20:47;;;;;;;13.95;8.27;;;;;;;31.89;34.47;102044.59;5007088;28;20045;-73
2022/09/05 09:23:39;;;;;;;11.48;8.05;;;;;;;31.96;34.33;102042.91;5008140;28;20073;-74
2022/09/05 09:26:15;;;;;;;12.25;8.50;;;;;;;32.09;34.54;102046.59;5002982;28;20054;-73
2022/09/05 09:28:44;;;;;;;12.30;9.63;;;;;;;32.10;34.52;102041.84;5010428;28;20046;-72
2022/09/05 09:31:29;;;;;;;9.63;7.25;;;;;;;32.31;34.53;102035.09;5028239;28;20509;-72
2022/09/05 09:34:03;;;;;;;11.38;6.88;;;;;;;32.49;34.16;102033.75;5010022;28;20045;-69
2022/09/05 09:36:59;;;;;;;9.75;6.57;;;;;;;32.54;33.79;102027.97;5028040;28;20045;-69
2022/09/05 09:39:42;;;;;;;7.88;5.88;;;;;;;32.65;32.98;102031.94;5019763;28;20113;-70
2022/09/05 09:42:16;;;;;;;8.35;5.88;;;;;;;32.74;32.31;102029.06;5003244;28;20089;-69
2022/09/05 09:44:51;;;;;;;12.23;5.78;;;;;;;32.72;32.33;102026.63;5002669;28;20050;-70
2022/09/05 09:47:34;;;;;;;9.00;4.93;;;;;;;32.75;32.16;102025.09;5006776;28;20041;-70
2022/09/05 09:50:15;;;;;;;7.32;4.80;;;;;;;32.80;31.46;102025.72;4997676;28;20034;-69
2022/09/05 09:53:13;;;;;;;5.45;3.15;;;;;;;32.78;31.71;102022.47;4998050;28;20524;-70
2022/09/05 09:55:41;;;;;;;4.68;3.17;;;;;;;32.97;31.50;102024.69;5055621;28;20086;-69
2022/09/05 09:58:40;;;;;;;5.50;3.78;;;;;;;33.03;31.07;102025.25;5081266;28;20404;-71
2022/09/05 10:01:35;;;;;;;7.13;3.50;;;;;;;33.14;31.41;102020.88;5075676;28;20072;-71
2022/09/05 10:04:06;;;;;;;8.68;3.15;;;;;;;33.35;30.47;102016.78;5089147;28;20455;-72
2022/09/05 10:06:49;;;;;;;13.95;4.15;;;;;;;33.59;30.72;102015.97;5078944;28;20036;-70
2022/09/05 10:09:30;;;;;;;6.07;3.95;;;;;;;33.77;30.35;102016.47;5085424;28;20020;-69
2022/09/05 10:12:29;;;;;;;5.38;3.05;;;;;;;33.92;29.87;102012.94;5077813;28;20118;-69
2022/09/05 10:15:19;;;;;;;6.03;2.40;;;;;;;33.84;29.34;102002.72;5085244;28;20518;-71
2022/09/05 10:17:58;;;;;;;6.93;2.38;;;;;;;33.71;29.18;102013.09;5080996;28;20059;-71
2022/09/05 10:20:42;;;;;;;7.70;2.10;;;;;;;33.97;28.83;102007.09;5075404;28;20044;-69
2022/09/05 10:23:10;;;;;;;6.30;1.70;;;;;;;34.15;28.64;102005.66;5070960;28;20044;-69
2022/09/05 10:25:51;;;;;;;8.02;2.67;;;;;;;34.21;28.61;101998.63;5071040;28;20068;-70
2022/09/05 10:28:35;;;;;;;3.80;1.80;;;;;;;34.50;27.91;102001.03;5073867;28;20094;-70
2022/09/05 10:31:12;;;;;;;3.40;1.20;;;;;;;34.77;26.83;101982.59;5071083;28;20049;-69
2022/09/05 10:33:47;;;;;;;2.75;1.80;;;;;;;34.90;27.15;101989.69;5087466;28;20040;-69
2022/09/05 10:36:25;;;;;;;5.00;2.00;;;;;;;34.83;27.43;101981.94;5091193;28;20111;-69
2022/09/05 10:39:15;;;;;;;6.18;2.72;;;;;;;34.85;27.73;101982.38;5079264;28;20040;-70
2022/09/05 10:41:43;;;;;;;6.87;2.47;;;;;;;35.11;27.14;101981.84;5071156;28;20181;-72
2022/09/05 10:44:12;;;;;;;6.80;2.80;;;;;;;35.12;27.09;101967.53;5070690;28;20116;-71
2022/09/05 10:46:57;;;;;;;6.38;2.38;;;;;;;35.34;26.94;101966.81;5070903;28;20032;-70
2022/09/05 10:49:26;;;;;;;6.15;2.13;;;;;;;35.28;25.86;101962.69;5075893;28;20040;-68
2022/09/05 10:52:06;;;;;;;4.07;1.63;;;;;;;35.43;25.41;101960.19;5085605;28;20044;-69
2022/09/05 10:55:05;;;;;;;5.95;2.20;;;;;;;35.58;25.91;101956.56;5075561;28;20024;-71
2022/09/05 10:57:45;;;;;;;5.43;2.25;;;;;;;35.83;26.94;101955.91;5073496;28;20345;-68
2022/09/05 11:00:41;;;;;;;5.20;2.00;;;;;;;36.04;24.91;101958.31;5080561;28;20035;-70
2022/09/05 11:03:12;;;;;;;4.50;1.70;;;;;;;35.90;23.98;101958.00;5083392;28;20055;-73
2022/09/05 11:05:44;;;;;;;3.10;1.38;;;;;;;36.12;23.03;101948.88;5073608;28;20055;-72
2022/09/05 11:08:35;;;;;;;6.82;1.70;;;;;;;36.12;23.15;101952.50;5073085;28;20041;-69
2022/09/05 11:11:21;;;;;;;2.75;1.50;;;;;;;36.27;23.48;101950.75;5083880;28;20040;-72
2022/09/05 11:13:55;;;;;;;3.38;1.10;;;;;;;36.35;22.61;101949.69;5093632;28;20487;-71
2022/09/05 11:16:50;;;;;;;1.48;1.10;;;;;;;36.63;22.22;101943.81;5083272;28;20045;-71
2022/09/05 11:19:25;;;;;;;3.08;1.10;;;;;;;36.39;21.89;101941.34;5076610;28;20485;-72
2022/09/05 11:22:00;;;;;;;6.45;1.33;;;;;;;36.79;22.04;101947.28;5081458;28;20472;-76
2022/09/05 11:24:31;;;;;;;6.00;1.00;;;;;;;36.87;21.55;101943.41;5083720;28;20035;-70
2022/09/05 11:27:04;;;;;;;6.93;2.03;;;;;;;36.77;22.13;101944.03;5083797;28;20093;-69
2022/09/05 11:29:50;;;;;;;2.35;1.08;;;;;;;37.14;21.04;101936.59;5079529;28;20039;-69
2022/09/05 11:32:28;;;;;;;3.80;1.20;;;;;;;37.05;20.37;101938.06;5085267;28;20508;-67
2022/09/05 11:35:21;;;;;;;1.83;0.90;;;;;;;37.41;20.35;101938.22;5079702;28;20036;-68
2022/09/05 11:37:49;;;;;;;2.10;1.10;;;;;;;37.45;20.52;101939.06;5083315;28;20042;-66
2022/09/05 11:40:27;;;;;;;2.92;1.15;;;;;;;37.30;21.29;101934.44;5063612;28;20040;-68
2022/09/05 11:43:28;;;;;;;2.20;1.40;;;;;;;37.25;21.73;101931.94;5079124;28;20044;-68
2022/09/05 11:46:08;;;;;;;2.78;1.30;;;;;;;37.10;21.37;101932.94;5081191;28;20032;-67
2022/09/05 11:48:46;;;;;;;3.17;1.33;;;;;;;37.63;21.02;101936.47;5074516;28;20051;-68
2022/09/05 11:51:49;;;;;;;2.85;1.33;;;;;;;37.95;20.71;101936.88;5081234;28;20030;-67
2022/09/05 11:54:25;;;;;;;3.58;1.52;;;;;;;37.82;20.08;101936.31;5081984;28;20036;-68
2022/09/05 11:57:08;;;;;;;4.10;1.23;;;;;;;38.16;20.18;101937.06;5081878;28;20058;-67
2022/09/05 11:59:33;;;;;;;4.70;1.45;;;;;;;38.28;19.91;101934.81;5078588;28;20041;-69
2022/09/05 12:02:15;;;;;;;1.70;1.15;;;;;;;38.38;19.48;101936.13;5082586;28;20119;-68
2022/09/05 12:05:05;;;;;;;2.65;1.10;;;;;;;38.58;19.16;101929.88;5079444;28;20020;-70
2022/09/05 12:07:50;;;;;;;2.40;1.40;;;;;;;38.49;19.13;101937.00;5079502;28;20442;-70
2022/09/05 12:10:45;;;;;;;5.82;1.20;;;;;;;38.57;19.00;101936.69;5078930;28;20036;-71
2022/09/05 12:13:48;;;;;;;2.53;1.10;;;;;;;38.74;19.27;101932.44;4990202;28;20066;-68
2022/09/05 12:16:52;;;;;;;6.20;1.58;;;;;;;38.75;19.19;101928.41;4990275;28;20435;-68
2022/09/05 12:19:21;;;;;;;2.03;1.35;;;;;;;38.91;19.12;101926.13;4951201;28;20074;-68
2022/09/05 12:22:07;;;;;;;2.28;1.25;;;;;;;38.70;18.91;101920.34;4947536;28;20524;-68
2022/09/05 12:24:49;;;;;;;3.42;1.00;;;;;;;39.34;18.77;101922.34;4946805;28;20047;-67